Time;durP1;ratioP1;P1;durP2;ratioP2;P2;SDS_P1;SDS_P2;PMS_P1;PMS_P2;Temp;Humidity;BMP_temperature;BMP_pressure;BME280_temperature;BME280_humidity;BME280_pressure;Samples;Min_cycle;Max_cycle;Signal;HPM_P1;HPM_P2
2022/03/29 00:00:33;;;;;;;2.80;1.10;;;;;;;1.89;81.37;97112.22;5103850;28;20094;-55
2022/03/29 00:03:07;;;;;;;1.92;1.10;;;;;;;1.90;81.45;97107.97;5103202;28;20272;-56
2022/03/29 00:05:34;;;;;;;4.82;1.10;;;;;;;1.97;81.37;97121.38;5103624;28;20033;-55
2022/03/29 00:08:00;;;;;;;2.95;1.42;;;;;;;1.92;80.94;97108.75;5103487;28;20024;-55
2022/03/29 00:10:26;;;;;;;1.98;1.10;;;;;;;2.02;81.43;97119.53;5103344;28;20055;-55
2022/03/29 00:12:53;;;;;;;3.45;1.20;;;;;;;1.94;81.17;97096.78;5103250;28;20392;-56
2022/03/29 00:15:23;;;;;;;5.13;1.25;;;;;;;2.02;81.67;97114.41;5097355;28;20071;-55
2022/03/29 00:17:49;;;;;;;2.72;1.08;;;;;;;1.91;81.33;97104.53;5094806;28;20190;-55
2022/03/29 00:20:15;;;;;;;2.13;1.00;;;;;;;1.95;81.23;97118.03;5109179;28;20075;-55
2022/03/29 00:22:41;;;;;;;1.88;1.00;;;;;;;2.00;81.71;97118.75;5111697;28;20028;-56
2022/03/29 00:25:07;;;;;;;2.58;1.10;;;;;;;2.00;81.74;97131.50;5123571;28;20224;-56
2022/03/29 00:27:37;;;;;;;1.35;1.08;;;;;;;1.86;81.54;97122.50;5110425;28;20036;-56
2022/03/29 00:30:04;;;;;;;1.75;1.17;;;;;;;1.90;81.84;97126.66;5096246;28;20023;-56
2022/03/29 00:32:30;;;;;;;2.55;1.13;;;;;;;1.85;82.07;97120.84;5103000;28;20065;-55
2022/03/29 00:34:55;;;;;;;2.00;1.33;;;;;;;1.96;81.89;97122.25;5107450;28;20059;-55
2022/03/29 00:37:21;;;;;;;2.15;1.10;;;;;;;1.95;82.12;97120.56;5123479;28;20023;-56
2022/03/29 00:39:46;;;;;;;2.85;1.30;;;;;;;1.93;81.87;97109.59;5103154;28;20313;-56
2022/03/29 00:42:12;;;;;;;1.77;1.10;;;;;;;2.02;81.44;97119.53;5102750;28;20077;-55
2022/03/29 00:44:38;;;;;;;3.88;1.25;;;;;;;1.90;81.99;97116.44;5102935;28;20328;-55
2022/03/29 00:47:05;;;;;;;2.63;1.13;;;;;;;1.91;82.02;97114.75;5102672;28;20024;-54
2022/03/29 00:49:31;;;;;;;2.67;1.20;;;;;;;1.88;82.22;97112.25;5101426;28;20309;-54
2022/03/29 00:52:00;;;;;;;5.05;1.67;;;;;;;1.76;81.63;97095.59;5095141;28;20035;-56
2022/03/29 00:54:30;;;;;;;2.97;1.00;;;;;;;1.62;81.51;97070.47;5106993;28;20031;-56
2022/03/29 00:56:57;;;;;;;2.33;1.10;;;;;;;1.61;81.43;97065.41;5107198;28;20023;-55
2022/03/29 00:59:24;;;;;;;1.38;1.10;;;;;;;1.88;81.33;97125.00;5114805;28;20035;-55
2022/03/29 01:01:50;;;;;;;2.08;1.10;;;;;;;1.89;81.68;97112.22;5122662;28;20039;-56
2022/03/29 01:04:16;;;;;;;2.25;0.90;;;;;;;1.97;81.86;97123.94;5107009;28;20229;-55
2022/03/29 01:06:44;;;;;;;3.08;1.20;;;;;;;1.94;81.97;97119.75;5106976;28;20035;-55
2022/03/29 01:09:13;;;;;;;1.88;1.10;;;;;;;1.99;81.65;97132.38;5106593;28;20083;-55
2022/03/29 01:11:39;;;;;;;1.20;0.80;;;;;;;1.90;81.25;97107.97;5106634;28;20044;-56
2022/03/29 01:14:05;;;;;;;3.45;1.23;;;;;;;1.84;80.94;97101.31;5106914;28;20031;-55
2022/03/29 01:19:21;;;;;;;1.95;0.95;;;;;;;1.80;81.59;97120.13;5106838;28;20020;-56
2022/03/29 01:22:00;;;;;;;1.05;1.00;;;;;;;1.85;81.22;97123.41;5106469;28;20023;-54
2022/03/29 01:24:27;;;;;;;2.28;1.15;;;;;;;1.77;81.33;97125.31;5123317;28;20087;-55
2022/03/29 01:26:57;;;;;;;2.75;1.10;;;;;;;1.67;81.30;97118.81;5125982;28;20051;-56
2022/03/29 01:29:23;;;;;;;2.03;1.05;;;;;;;1.81;81.30;97116.72;5093852;28;20026;-55
2022/03/29 01:31:50;;;;;;;3.92;1.30;;;;;;;1.75;81.11;97126.25;5109834;28;20072;-56
2022/03/29 01:34:17;;;;;;;1.42;0.90;;;;;;;1.76;81.21;97122.81;5127014;28;20028;-55
2022/03/29 01:36:42;;;;;;;4.85;1.08;;;;;;;1.78;81.26;97118.50;5107863;28;20083;-55
2022/03/29 01:39:08;;;;;;;1.42;0.90;;;;;;;1.80;81.36;97127.78;5106476;28;20051;-56
2022/03/29 01:41:34;;;;;;;2.70;1.27;;;;;;;1.78;81.45;97132.13;5105968;28;20065;-55
2022/03/29 01:43:59;;;;;;;2.13;0.98;;;;;;;1.73;81.52;97123.75;5105829;28;20032;-55
2022/03/29 01:46:26;;;;;;;2.17;1.10;;;;;;;1.80;81.23;97126.97;5106246;28;20020;-55
2022/03/29 01:48:51;;;;;;;2.22;0.90;;;;;;;1.77;81.33;97137.22;5106101;28;20023;-55
2022/03/29 01:51:17;;;;;;;2.83;1.23;;;;;;;1.81;81.47;97134.56;5093266;28;20056;-55
2022/03/29 01:53:47;;;;;;;1.27;1.00;;;;;;;1.48;81.43;97073.41;5105859;28;20065;-55
2022/03/29 01:56:13;;;;;;;1.70;1.10;;;;;;;1.83;81.28;97126.88;5104766;28;20089;-55
2022/03/29 01:58:39;;;;;;;3.85;1.50;;;;;;;1.88;81.01;97136.06;5107156;28;20317;-56
2022/03/29 02:01:04;;;;;;;3.20;1.17;;;;;;;1.85;80.98;97148.94;5125510;28;20020;-54
2022/03/29 02:03:30;;;;;;;2.78;1.05;;;;;;;1.89;81.40;97135.16;5108597;28;20027;-55
2022/03/29 02:05:55;;;;;;;2.28;1.17;;;;;;;1.94;81.12;97141.88;5105657;28;20064;-56
2022/03/29 02:08:21;;;;;;;1.92;1.08;;;;;;;1.94;81.15;97132.50;5112893;28;20220;-56
2022/03/29 02:10:46;;;;;;;3.58;1.38;;;;;;;1.87;81.06;97131.00;5123668;28;20084;-55
2022/03/29 02:13:12;;;;;;;2.17;1.10;;;;;;;1.93;81.10;97158.09;5105627;28;20321;-56
2022/03/29 02:15:39;;;;;;;4.57;1.40;;;;;;;1.60;80.44;97091.81;5123711;28;20035;-57
2022/03/29 02:18:06;;;;;;;2.60;1.00;;;;;;;1.95;80.62;97134.16;5112937;28;20042;-56
2022/03/29 02:20:32;;;;;;;3.28;1.45;;;;;;;1.99;80.64;97158.72;5105695;28;20065;-56
2022/03/29 02:23:06;;;;;;;4.45;1.50;;;;;;;2.02;80.35;97165.47;5107958;28;20020;-56
2022/03/29 02:25:32;;;;;;;3.28;1.30;;;;;;;1.84;80.87;97156.59;5125787;28;20024;-56
2022/03/29 02:27:58;;;;;;;2.15;1.10;;;;;;;1.97;80.85;97165.59;5105212;28;20031;-56
2022/03/29 02:30:24;;;;;;;1.25;0.95;;;;;;;2.04;80.01;97158.63;5105209;28;20407;-57
2022/03/29 02:32:50;;;;;;;3.25;1.40;;;;;;;1.94;80.42;97162.28;5116515;28;20046;-57
2022/03/29 02:35:16;;;;;;;2.08;1.20;;;;;;;1.99;79.61;97168.09;5119628;28;20024;-56
2022/03/29 02:37:42;;;;;;;1.98;1.30;;;;;;;2.04;79.32;97171.38;5104679;28;20086;-57
2022/03/29 02:40:09;;;;;;;2.03;1.50;;;;;;;2.10;79.46;97171.19;5105277;28;20458;-55
2022/03/29 02:42:41;;;;;;;3.92;1.38;;;;;;;2.11;79.03;97161.81;5104949;28;20036;-56
2022/03/29 02:45:07;;;;;;;3.88;1.38;;;;;;;2.06;78.84;97162.78;5104855;28;20020;-55
2022/03/29 02:47:33;;;;;;;1.83;1.30;;;;;;;2.09;78.87;97166.13;5113467;28;20043;-55
2022/03/29 02:49:58;;;;;;;1.30;1.08;;;;;;;2.09;78.62;97166.13;5121131;28;20020;-55
2022/03/29 02:52:24;;;;;;;4.53;1.40;;;;;;;1.99;78.23;97173.22;5104688;28;20108;-56
2022/03/29 02:54:49;;;;;;;1.75;1.30;;;;;;;2.09;78.41;97174.63;5104807;28;20031;-56
2022/03/29 02:57:15;;;;;;;1.88;1.33;;;;;;;2.16;78.08;97165.91;5104593;28;20020;-56
2022/03/29 02:59:41;;;;;;;1.83;1.20;;;;;;;2.21;78.03;97173.44;5104518;28;20036;-56
2022/03/29 03:02:06;;;;;;;3.20;1.50;;;;;;;2.19;78.55;97170.09;5103255;28;20205;-56
2022/03/29 03:04:33;;;;;;;2.05;1.35;;;;;;;2.25;77.92;97180.13;5104683;28;20027;-55
2022/03/29 03:06:58;;;;;;;5.18;1.33;;;;;;;2.15;77.96;97164.25;5104547;28;20019;-56
2022/03/29 03:09:24;;;;;;;2.45;1.55;;;;;;;2.28;78.55;97189.41;5104040;28;20035;-56
2022/03/29 03:11:49;;;;;;;4.03;2.00;;;;;;;2.20;78.60;97172.59;5104337;28;20040;-55
2022/03/29 03:14:15;;;;;;;2.90;1.23;;;;;;;2.17;78.64;97194.84;5109578;28;20073;-55
2022/03/29 03:16:41;;;;;;;2.10;1.10;;;;;;;2.16;78.49;97180.41;5124061;28;20324;-55
2022/03/29 03:19:07;;;;;;;2.63;1.40;;;;;;;2.28;78.17;97189.41;5124646;28;20029;-55
2022/03/29 03:21:32;;;;;;;4.28;1.35;;;;;;;2.24;78.20;97194.63;5124495;28;20027;-55
2022/03/29 03:23:58;;;;;;;3.20;1.75;;;;;;;2.23;78.74;97198.03;5111434;28;20031;-56
2022/03/29 03:26:23;;;;;;;2.50;1.40;;;;;;;2.17;78.45;97190.56;5117489;28;20043;-56
2022/03/29 03:28:49;;;;;;;3.08;1.20;;;;;;;2.27;78.44;97193.69;5106018;28;20374;-55
2022/03/29 03:31:14;;;;;;;5.60;1.50;;;;;;;2.15;78.33;97204.25;5123262;28;20190;-55
2022/03/29 03:33:40;;;;;;;4.80;1.48;;;;;;;2.13;78.15;97206.84;5106444;28;20058;-56
2022/03/29 03:36:06;;;;;;;2.28;1.23;;;;;;;2.18;78.33;97209.25;5104018;28;20023;-55
2022/03/29 03:38:32;;;;;;;1.80;1.10;;;;;;;2.10;78.09;97209.50;5103744;28;20031;-57
2022/03/29 03:40:58;;;;;;;4.20;1.55;;;;;;;1.99;78.22;97211.50;5107220;28;20035;-56
2022/03/29 03:43:23;;;;;;;4.65;1.60;;;;;;;2.02;78.46;97202.06;5091512;28;20025;-55
2022/03/29 03:45:49;;;;;;;3.45;1.40;;;;;;;2.09;77.85;97214.63;5102329;28;20027;-55
2022/03/29 03:48:14;;;;;;;2.42;1.30;;;;;;;2.15;77.81;97214.47;5117645;28;20037;-55
2022/03/29 03:50:40;;;;;;;2.00;1.30;;;;;;;2.19;78.06;97227.09;5112739;28;20020;-55
2022/03/29 03:53:05;;;;;;;2.38;1.40;;;;;;;2.15;78.15;97230.63;5103366;28;20070;-56
2022/03/29 03:55:31;;;;;;;2.85;1.48;;;;;;;2.03;77.88;97221.56;5102228;28;20340;-56
2022/03/29 03:57:56;;;;;;;3.25;1.55;;;;;;;2.09;78.36;97235.88;5116202;28;20038;-55
2022/03/29 04:00:24;;;;;;;3.22;1.67;;;;;;;2.12;77.95;97224.75;5085446;28;20061;-55
2022/03/29 04:02:50;;;;;;;5.00;1.92;;;;;;;2.09;78.16;97233.34;5113824;28;20369;-55
2022/03/29 04:05:16;;;;;;;1.92;1.10;;;;;;;2.10;77.75;97226.53;5111236;28;20321;-55
2022/03/29 04:07:42;;;;;;;2.45;1.38;;;;;;;2.21;77.88;97243.22;5104084;28;20039;-55
2022/03/29 04:10:09;;;;;;;2.65;1.20;;;;;;;2.18;77.10;97225.44;5123626;28;20031;-55
2022/03/29 04:12:35;;;;;;;3.83;1.52;;;;;;;2.32;77.55;97242.91;5123925;28;20324;-57
2022/03/29 04:15:01;;;;;;;2.40;1.67;;;;;;;2.33;77.57;97244.59;5111651;28;20050;-56
2022/03/29 04:17:29;;;;;;;5.30;1.63;;;;;;;2.35;78.07;97253.06;5103271;28;20024;-55
2022/03/29 04:19:55;;;;;;;3.75;1.30;;;;;;;2.31;77.52;97248.06;5102987;28;20213;-56
2022/03/29 04:22:21;;;;;;;2.55;1.65;;;;;;;2.34;77.37;97253.94;5102945;28;20024;-56
2022/03/29 04:24:47;;;;;;;2.58;1.50;;;;;;;2.35;77.54;97257.31;5102507;28;20051;-57
2022/03/29 04:27:12;;;;;;;1.88;1.50;;;;;;;2.27;78.21;97257.53;5112047;28;20136;-56
2022/03/29 04:29:38;;;;;;;2.85;1.83;;;;;;;2.26;77.69;97253.28;5091628;28;20032;-57
2022/03/29 04:32:04;;;;;;;3.20;1.52;;;;;;;2.32;78.21;97262.50;5103015;28;20062;-57
2022/03/29 04:34:29;;;;;;;3.60;1.70;;;;;;;2.38;77.58;97269.97;5103038;28;20032;-57
2022/03/29 04:36:58;;;;;;;3.03;1.98;;;;;;;2.41;77.82;97267.38;5122172;28;20035;-55
2022/03/29 04:39:24;;;;;;;3.88;1.95;;;;;;;2.40;78.01;97269.06;5108135;28;20032;-55
2022/03/29 04:41:50;;;;;;;3.75;1.80;;;;;;;2.33;77.71;97269.28;5102969;28;20039;-56
2022/03/29 04:44:16;;;;;;;3.13;1.58;;;;;;;2.42;77.60;97275.00;5102431;28;20158;-55
2022/03/29 04:46:41;;;;;;;5.15;1.90;;;;;;;2.51;77.31;97279.00;5102733;28;20287;-55
2022/03/29 04:49:07;;;;;;;2.53;1.90;;;;;;;2.65;77.20;97282.88;5102830;28;20020;-55
2022/03/29 04:51:34;;;;;;;4.07;2.08;;;;;;;2.49;76.53;97234.75;5100930;28;20028;-55
2022/03/29 04:54:01;;;;;;;2.60;1.63;;;;;;;2.59;76.33;97273.66;5102647;28;20020;-54
2022/03/29 04:56:27;;;;;;;3.17;1.90;;;;;;;2.76;76.46;97281.69;5109513;28;20027;-54
2022/03/29 04:58:52;;;;;;;4.07;1.80;;;;;;;2.80;75.63;97269.66;5107780;28;20356;-55
2022/03/29 05:01:18;;;;;;;4.10;2.20;;;;;;;2.79;76.11;97267.97;5123375;28;20043;-55
2022/03/29 05:03:43;;;;;;;5.97;1.92;;;;;;;2.90;75.44;97275.31;5123083;28;20024;-56
2022/03/29 05:06:09;;;;;;;2.80;1.83;;;;;;;2.99;75.76;97280.16;5102970;28;20032;-54
2022/03/29 05:08:34;;;;;;;3.13;2.00;;;;;;;3.14;74.69;97268.63;5110184;28;20024;-56
2022/03/29 05:11:00;;;;;;;5.50;2.35;;;;;;;3.17;74.39;97275.38;5120174;28;20347;-56
2022/03/29 05:13:27;;;;;;;3.05;2.30;;;;;;;2.92;74.90;97274.41;5102277;28;20047;-55
2022/03/29 05:15:53;;;;;;;6.43;2.20;;;;;;;2.93;75.23;97276.06;5121341;28;20103;-56
2022/03/29 05:18:18;;;;;;;3.03;2.20;;;;;;;3.05;76.09;97303.00;5122990;28;20023;-56
2022/03/29 05:20:45;;;;;;;8.10;2.55;;;;;;;2.87;76.48;97300.97;5113477;28;20056;-55
2022/03/29 05:23:11;;;;;;;4.05;2.17;;;;;;;2.93;76.47;97291.41;5104958;28;20042;-55
2022/03/29 05:25:36;;;;;;;5.18;2.45;;;;;;;2.90;76.00;97280.44;5122667;28;20039;-55
2022/03/29 05:28:02;;;;;;;5.10;2.33;;;;;;;3.01;75.85;97286.06;5102335;28;20051;-56
2022/03/29 05:30:28;;;;;;;5.72;2.40;;;;;;;3.01;76.46;97341.50;5102101;28;20035;-56
2022/03/29 05:33:00;;;;;;;3.83;1.40;;;;;;;2.72;77.67;97336.31;5102170;28;20024;-56
2022/03/29 05:35:30;;;;;;;3.55;1.10;;;;;;;2.66;78.75;97333.09;5108615;28;20073;-56
2022/03/29 05:38:02;;;;;;;1.45;1.20;;;;;;;2.79;78.17;97339.53;5126543;28;20373;-55
2022/03/29 05:40:28;;;;;;;1.42;1.00;;;;;;;2.63;77.58;97334.00;5126236;28;20098;-55
2022/03/29 05:42:55;;;;;;;4.82;1.25;;;;;;;2.69;77.51;97340.66;5102770;28;20031;-56
2022/03/29 05:45:21;;;;;;;4.07;1.52;;;;;;;2.68;77.07;97349.22;5099436;28;20217;-55
2022/03/29 05:50:32;;;;;;;2.35;1.38;;;;;;;2.67;77.28;97355.22;5123889;28;20028;-56
2022/03/29 05:52:58;;;;;;;3.22;1.30;;;;;;;2.50;76.91;97359.06;5101311;28;20032;-55
2022/03/29 05:55:25;;;;;;;3.83;2.15;;;;;;;2.64;76.60;97350.19;5105705;28;20071;-56
2022/03/29 05:57:52;;;;;;;2.90;1.70;;;;;;;2.71;77.35;97360.19;5123224;28;20100;-55
2022/03/29 06:00:19;;;;;;;4.43;2.30;;;;;;;2.96;75.89;97368.91;5105345;28;20147;-55
2022/03/29 06:02:44;;;;;;;3.03;1.60;;;;;;;2.92;75.33;97368.13;5113183;28;20332;-55
2022/03/29 06:05:10;;;;;;;4.40;1.83;;;;;;;2.90;75.87;97378.41;5114213;28;20042;-56
2022/03/29 06:07:36;;;;;;;6.75;1.52;;;;;;;2.97;75.07;97375.69;5105559;28;20224;-55
2022/03/29 06:10:08;;;;;;;4.50;1.90;;;;;;;2.97;75.77;97373.13;5120962;28;20073;-56
2022/03/29 06:12:36;;;;;;;3.50;1.67;;;;;;;2.89;74.27;97370.78;5103723;28;20059;-56
2022/03/29 06:15:06;;;;;;;5.53;1.95;;;;;;;3.02;74.42;97382.34;5103225;28;20040;-56
2022/03/29 06:17:32;;;;;;;2.90;1.60;;;;;;;2.85;74.01;97392.19;5118503;28;20268;-56
2022/03/29 06:19:57;;;;;;;5.22;1.92;;;;;;;2.71;74.69;97400.25;5103257;28;20032;-56
2022/03/29 06:22:23;;;;;;;1.55;1.30;;;;;;;2.79;73.16;97388.09;5102524;28;20078;-56
2022/03/29 06:24:50;;;;;;;1.90;1.55;;;;;;;3.04;72.53;97395.09;5102704;28;20217;-56
2022/03/29 06:27:15;;;;;;;1.65;1.48;;;;;;;3.14;71.30;97404.16;5106751;28;20044;-56
2022/03/29 06:29:41;;;;;;;4.05;1.70;;;;;;;3.03;69.84;97404.47;5111993;28;20036;-57
2022/03/29 06:32:06;;;;;;;2.28;1.52;;;;;;;3.09;69.93;97413.69;5115748;28;20035;-56
2022/03/29 06:34:32;;;;;;;2.58;1.60;;;;;;;3.08;70.17;97422.25;5103403;28;20070;-56
2022/03/29 06:36:59;;;;;;;2.08;1.40;;;;;;;3.10;69.55;97425.59;5102423;28;20024;-56
2022/03/29 06:39:24;;;;;;;1.75;1.35;;;;;;;3.08;68.23;97437.59;5102043;28;20040;-56
2022/03/29 06:41:50;;;;;;;2.83;1.80;;;;;;;2.82;69.47;97441.69;5102657;28;20028;-56
2022/03/29 06:44:17;;;;;;;3.35;1.70;;;;;;;2.81;70.38;97457.91;5102446;28;20240;-56
2022/03/29 06:46:43;;;;;;;2.70;1.45;;;;;;;2.62;70.78;97465.19;5102101;28;20028;-56
2022/03/29 06:49:09;;;;;;;2.40;1.42;;;;;;;2.70;70.88;97476.06;5102455;28;20028;-56
2022/03/29 06:51:35;;;;;;;1.77;1.20;;;;;;;2.59;71.34;97475.50;5100015;28;20714;-55
2022/03/29 06:54:03;;;;;;;2.35;2.10;;;;;;;2.20;71.40;97420.25;5112561;28;20236;-55
2022/03/29 06:56:30;;;;;;;2.22;1.40;;;;;;;2.45;70.96;97480.13;5117296;28;20028;-55
2022/03/29 06:58:57;;;;;;;2.22;1.10;;;;;;;2.45;71.20;97467.34;5103306;28;20257;-54
2022/03/29 07:01:22;;;;;;;2.65;1.20;;;;;;;2.55;70.88;97484.13;5122484;28;20332;-56
2022/03/29 07:03:48;;;;;;;1.42;1.33;;;;;;;2.76;71.30;97485.28;5123352;28;20024;-55
2022/03/29 07:06:14;;;;;;;1.38;1.27;;;;;;;2.69;69.41;97491.44;5102524;28;20099;-56
2022/03/29 07:11:16;;;;;;;5.72;1.70;;;;;;;2.85;69.70;97491.88;5110594;28;20027;-55
2022/03/29 07:11:25;;;;;;;2.80;1.90;;;;;;;3.16;68.15;97486.78;5124662;28;20212;-55
2022/03/29 07:13:51;;;;;;;1.63;1.52;;;;;;;3.29;66.30;97497.50;5124784;28;20070;-56
2022/03/29 07:16:17;;;;;;;1.60;1.50;;;;;;;3.77;65.33;97488.47;5124912;27;20024;-55
2022/03/29 07:18:43;;;;;;;2.25;1.60;;;;;;;3.80;64.67;97483.25;5115381;28;20020;-56
2022/03/29 07:21:12;;;;;;;2.75;1.42;;;;;;;4.21;62.74;97493.97;5104172;28;20039;-56
2022/03/29 07:23:39;;;;;;;2.92;1.60;;;;;;;3.60;61.40;97499.22;5111297;28;20065;-55
2022/03/29 07:26:05;;;;;;;2.45;1.48;;;;;;;3.31;60.92;97505.13;5124466;28;20095;-57
2022/03/29 07:28:32;;;;;;;2.65;1.55;;;;;;;3.49;59.60;97509.75;5099807;28;20025;-55
2022/03/29 07:30:57;;;;;;;1.98;1.50;;;;;;;3.34;61.50;97520.44;5119949;28;20027;-55
2022/03/29 07:33:23;;;;;;;2.75;1.55;;;;;;;3.47;60.42;97521.75;5101622;28;20201;-56
2022/03/29 07:35:49;;;;;;;2.75;1.73;;;;;;;3.48;60.73;97514.91;5098645;28;20030;-56
2022/03/29 07:38:15;;;;;;;1.65;1.52;;;;;;;3.87;59.73;97519.78;5087183;28;20028;-56
2022/03/29 07:40:42;;;;;;;2.20;1.60;;;;;;;3.66;58.09;97504.13;5103875;28;20095;-56
2022/03/29 07:43:11;;;;;;;5.57;2.35;;;;;;;3.77;58.06;97475.69;5103458;28;20032;-55
2022/03/29 07:45:37;;;;;;;2.38;1.70;;;;;;;3.92;57.31;97518.75;5103666;28;20055;-57
2022/03/29 07:48:03;;;;;;;2.63;1.70;;;;;;;3.89;58.46;97526.53;5104184;28;20027;-55
2022/03/29 07:50:31;;;;;;;2.15;1.60;;;;;;;3.72;56.59;97541.53;5101056;28;20091;-56
2022/03/29 07:52:59;;;;;;;2.70;1.60;;;;;;;3.67;56.89;97546.78;5104557;28;20020;-56
2022/03/29 07:55:26;;;;;;;2.28;1.58;;;;;;;3.42;56.78;97550.03;5123914;28;20257;-55
2022/03/29 07:57:52;;;;;;;1.80;1.40;;;;;;;3.59;56.72;97547.00;5123585;28;20019;-56
2022/03/29 08:00:34;;;;;;;3.65;1.90;;;;;;;3.91;57.30;97557.22;5103337;28;20313;-56
2022/03/29 08:03:01;;;;;;;5.45;1.95;;;;;;;3.91;56.75;97570.84;5103768;28;20066;-56
2022/03/29 08:05:28;;;;;;;3.08;1.30;;;;;;;3.72;56.90;97557.75;5088396;28;20040;-54
2022/03/29 08:07:54;;;;;;;2.47;1.33;;;;;;;3.62;56.40;97562.28;5084395;28;20036;-55
2022/03/29 08:10:19;;;;;;;3.15;1.45;;;;;;;3.74;55.90;97548.28;5123454;28;20015;-56
2022/03/29 08:12:45;;;;;;;2.90;1.65;;;;;;;3.92;55.10;97566.53;5122602;28;20069;-55
2022/03/29 08:15:11;;;;;;;36.65;21.85;;;;;;;3.96;56.35;97579.22;5112119;28;20085;-55
2022/03/29 08:17:38;;;;;;;4.25;1.88;;;;;;;3.77;55.37;97580.63;5103515;28;20087;-55
2022/03/29 08:20:05;;;;;;;5.05;1.70;;;;;;;4.08;56.26;97583.16;5104879;28;20092;-56
2022/03/29 08:22:35;;;;;;;6.13;1.48;;;;;;;4.29;56.26;97586.78;5111130;28;20057;-55
2022/03/29 08:25:02;;;;;;;1.60;1.40;;;;;;;4.01;54.11;97588.50;5102677;28;20020;-56
2022/03/29 08:27:29;;;;;;;1.58;1.40;;;;;;;4.07;54.69;97590.88;5102959;28;20024;-55
2022/03/29 08:29:55;;;;;;;2.08;1.42;;;;;;;4.07;55.56;97598.56;5101231;28;20328;-56
2022/03/29 08:32:20;;;;;;;2.10;1.40;;;;;;;3.87;54.84;97592.28;5102939;28;20221;-55
2022/03/29 08:34:46;;;;;;;2.95;1.15;;;;;;;3.91;55.54;97595.63;5102998;28;20108;-56
2022/03/29 08:37:11;;;;;;;1.42;1.27;;;;;;;3.83;54.33;97600.09;5102843;28;20035;-56
2022/03/29 08:39:37;;;;;;;1.70;1.50;;;;;;;4.08;55.30;97606.19;5101198;28;20034;-56
2022/03/29 08:42:10;;;;;;;2.58;1.55;;;;;;;4.00;55.68;97599.63;5105808;28;20036;-56
2022/03/29 08:44:38;;;;;;;1.52;1.30;;;;;;;4.15;55.21;97612.00;5088471;28;20024;-56
2022/03/29 08:47:08;;;;;;;3.53;1.23;;;;;;;4.31;54.81;97620.06;5103020;28;20089;-56
2022/03/29 08:49:34;;;;;;;1.15;1.00;;;;;;;4.43;53.43;97616.28;5122445;28;20051;-56
2022/03/29 08:52:01;;;;;;;1.55;1.17;;;;;;;4.27;54.21;97619.28;5102420;28;20039;-56
2022/03/29 08:54:27;;;;;;;1.80;1.40;;;;;;;4.19;54.39;97625.53;5102511;28;20216;-57
2022/03/29 08:56:53;;;;;;;1.33;1.00;;;;;;;4.28;53.51;97617.59;5102589;28;20032;-56
2022/03/29 08:59:20;;;;;;;1.73;1.23;;;;;;;4.17;53.92;97620.47;5102483;28;20024;-57
2022/03/29 09:01:47;;;;;;;1.67;1.30;;;;;;;3.97;53.98;97621.84;5102821;28;20068;-56
2022/03/29 09:04:21;;;;;;;1.52;1.20;;;;;;;4.17;52.63;97615.34;5118730;28;20027;-55
2022/03/29 09:06:50;;;;;;;2.65;1.20;;;;;;;4.12;52.88;97627.47;5102758;28;20054;-55
2022/03/29 09:09:32;;;;;;;1.60;1.40;;;;;;;3.80;54.06;97598.47;5114168;28;20328;-55
2022/03/29 09:12:09;;;;;;;1.40;1.30;;;;;;;4.08;53.19;97595.13;5111152;28;20044;-55
2022/03/29 09:14:59;;;;;;;3.05;1.95;;;;;;;4.62;53.58;97634.53;5107582;28;20032;-55
2022/03/29 09:17:27;;;;;;;4.05;2.13;;;;;;;4.85;53.16;97646.63;5104851;28;20036;-55
2022/03/29 09:19:55;;;;;;;2.60;2.25;;;;;;;5.03;53.05;97646.91;5106533;28;20031;-56
2022/03/29 09:22:35;;;;;;;3.60;2.00;;;;;;;4.45;52.52;97594.03;5106987;28;20069;-56
2022/03/29 09:25:01;;;;;;;4.10;2.13;;;;;;;4.79;53.38;97657.91;5103163;28;20091;-55
2022/03/29 09:27:26;;;;;;;3.65;2.10;;;;;;;4.83;53.31;97656.06;5106946;28;20036;-55
2022/03/29 09:30:09;;;;;;;3.85;2.33;;;;;;;4.88;53.60;97651.63;5113441;28;20027;-55
2022/03/29 09:32:53;;;;;;;4.13;2.50;;;;;;;4.95;52.71;97645.44;5120513;28;20032;-56
2022/03/29 09:35:19;;;;;;;2.65;2.40;;;;;;;4.80;54.06;97651.91;5109717;28;20023;-55
2022/03/29 09:37:45;;;;;;;3.40;2.50;;;;;;;4.81;52.36;97662.97;5126686;28;20221;-55
2022/03/29 09:40:12;;;;;;;3.13;2.42;;;;;;;4.46;53.04;97670.84;5126397;28;20047;-55
2022/03/29 09:42:42;;;;;;;3.38;2.53;;;;;;;4.23;53.31;97674.09;5111533;28;20028;-54
2022/03/29 09:45:09;;;;;;;5.13;2.33;;;;;;;4.67;53.05;97671.09;5095581;28;20024;-55
2022/03/29 09:47:35;;;;;;;3.50;2.45;;;;;;;4.79;54.31;97677.59;5090970;28;20020;-55
2022/03/29 09:50:06;;;;;;;3.40;2.25;;;;;;;4.41;52.80;97623.19;5101845;28;20024;-55
2022/03/29 09:52:39;;;;;;;3.45;2.33;;;;;;;4.45;53.18;97694.81;5107292;28;20032;-55
2022/03/29 09:55:16;;;;;;;3.40;2.10;;;;;;;4.56;53.08;97681.69;5124094;28;20034;-55
2022/03/29 09:57:53;;;;;;;1.83;1.70;;;;;;;4.47;52.60;97690.44;5107703;28;20028;-55
2022/03/29 10:00:24;;;;;;;2.15;1.55;;;;;;;4.23;51.95;97694.59;5105686;28;20048;-55
2022/03/29 10:02:50;;;;;;;4.43;2.17;;;;;;;4.42;54.05;97687.22;5113928;28;20031;-55
2022/03/29 10:05:18;;;;;;;3.33;2.28;;;;;;;4.59;52.71;97688.41;5105757;28;20020;-55
2022/03/29 10:10:48;;;;;;;3.13;1.73;;;;;;;4.46;52.44;97686.25;5106095;28;20099;-55
2022/03/29 10:13:16;;;;;;;3.63;2.00;;;;;;;4.52;52.29;97681.78;5104553;28;20275;-55
2022/03/29 10:15:42;;;;;;;3.63;2.10;;;;;;;4.73;52.42;97694.00;5120496;28;20031;-55
2022/03/29 10:18:08;;;;;;;3.13;2.30;;;;;;;4.83;52.46;97694.53;5124569;28;20080;-54
2022/03/29 10:20:35;;;;;;;2.60;2.38;;;;;;;4.94;52.48;97692.47;5120305;28;20240;-56
2022/03/29 10:23:01;;;;;;;2.88;2.40;;;;;;;4.96;51.94;97695.84;5102611;28;20028;-55
2022/03/29 10:25:28;;;;;;;2.47;2.25;;;;;;;5.23;51.72;97695.00;5105319;28;20036;-54
2022/03/29 10:27:59;;;;;;;4.88;2.38;;;;;;;5.26;50.55;97694.91;5105246;28;20031;-55
2022/03/29 10:30:36;;;;;;;2.50;2.25;;;;;;;5.22;49.80;97703.63;5107203;28;20032;-54
2022/03/29 10:33:24;;;;;;;3.28;2.40;;;;;;;5.25;49.49;97691.50;5104569;28;20052;-54
2022/03/29 10:36:09;;;;;;;3.85;2.58;;;;;;;5.32;49.54;97698.13;5112413;28;20023;-55
2022/03/29 10:38:47;;;;;;;3.90;2.58;;;;;;;5.51;49.77;97694.94;5101881;28;20051;-54
2022/03/29 10:41:34;;;;;;;3.35;2.78;;;;;;;5.34;49.27;97693.78;5124241;28;20137;-55
2022/03/29 10:44:02;;;;;;;6.72;2.72;;;;;;;4.72;51.27;97647.88;5087071;28;20024;-55
2022/03/29 10:46:45;;;;;;;4.50;2.60;;;;;;;5.07;49.00;97704.94;5104929;28;20036;-55
2022/03/29 10:49:23;;;;;;;3.65;2.88;;;;;;;5.29;52.23;97718.75;5123444;28;20038;-54
2022/03/29 10:51:52;;;;;;;5.95;2.70;;;;;;;5.18;52.69;97710.56;5116185;28;20209;-55
2022/03/29 10:54:36;;;;;;;5.90;2.83;;;;;;;4.95;51.68;97703.59;5109767;28;20027;-55
2022/03/29 10:57:25;;;;;;;3.22;2.63;;;;;;;5.01;51.47;97706.78;5125338;28;20092;-55
2022/03/29 10:59:58;;;;;;;6.82;2.92;;;;;;;4.81;49.87;97698.88;5100159;28;20036;-55
2022/03/29 11:02:25;;;;;;;5.47;3.55;;;;;;;4.83;51.51;97704.78;5108364;28;20020;-57
2022/03/29 11:05:00;;;;;;;3.88;2.85;;;;;;;4.69;50.57;97722.31;5116039;28;20065;-55
2022/03/29 11:07:26;;;;;;;3.42;2.78;;;;;;;4.99;52.28;97712.88;5104318;28;20198;-55
2022/03/29 11:10:12;;;;;;;3.80;3.03;;;;;;;5.17;51.43;97711.44;5119859;28;20068;-54
2022/03/29 11:12:43;;;;;;;4.78;3.92;;;;;;;4.75;51.68;97730.69;5118691;28;20178;-55
2022/03/29 11:15:23;;;;;;;4.53;3.20;;;;;;;5.03;52.67;97713.59;5124683;28;20066;-55
2022/03/29 11:17:56;;;;;;;6.82;3.42;;;;;;;5.25;51.74;97712.03;5117900;28;20080;-55
2022/03/29 11:20:29;;;;;;;5.10;3.22;;;;;;;5.30;50.31;97712.75;5107485;28;20019;-55
2022/03/29 11:22:57;;;;;;;4.63;2.70;;;;;;;5.16;51.90;97684.13;5107891;28;20036;-56
2022/03/29 11:25:23;;;;;;;6.10;3.17;;;;;;;5.40;51.19;97717.56;5104006;28;20027;-55
2022/03/29 11:27:49;;;;;;;4.38;2.90;;;;;;;4.89;49.68;97698.63;5112069;28;20016;-55
2022/03/29 11:30:14;;;;;;;5.07;3.25;;;;;;;5.07;49.28;97710.88;5104118;28;20456;-55
2022/03/29 11:32:43;;;;;;;3.30;2.97;;;;;;;5.12;50.61;97721.03;5109456;28;20095;-55
2022/03/29 11:35:11;;;;;;;3.42;2.85;;;;;;;5.14;50.84;97729.50;5121386;28;20027;-54
2022/03/29 11:37:40;;;;;;;4.70;3.25;;;;;;;5.14;51.33;97752.59;5104345;28;20054;-55
2022/03/29 11:40:09;;;;;;;5.60;3.22;;;;;;;5.10;51.49;97756.13;5105469;28;20028;-54
2022/03/29 11:42:49;;;;;;;4.50;3.55;;;;;;;5.10;50.47;97746.72;5103441;28;20075;-55
2022/03/29 11:45:17;;;;;;;3.78;3.00;;;;;;;4.67;51.18;97699.28;5102640;28;20023;-57
2022/03/29 11:47:53;;;;;;;4.60;4.00;;;;;;;5.09;51.93;97744.19;5105673;28;20351;-54
2022/03/29 11:50:38;;;;;;;4.13;3.58;;;;;;;4.98;51.51;97744.53;5101604;28;20034;-55
2022/03/29 11:53:31;;;;;;;5.07;4.00;;;;;;;5.03;50.23;97764.91;5105873;28;20046;-55